Mesures en temps réel :

Wind Speed:
CloudBase:
Pressure:

Données extraites du METAR (ESSEY) :


Ephéméride:

Dernière MàJ: 22/05/2024, 04:34:01.
 (Attention : horaires donnés en heure LOCALE, déjà corrigée hiver/été. Pour UTC, retrancher 2H).
Heure du lever aéronautique (-6°):04:55:43
Heure du lever standard:05:36:28


Heure du coucher standard:21:07:10
Heure du coucher aéronautique (-6°):21:48:06


 source: http://vo.imcce.fr/webservices/miriade/

Mesures récentes

5 dernières minutes : Vitesse moyenne : 1.9 m/s | Rafales : 3.8 m/s | Direction moyenne : 25 °



?>

METAR (LFSN - Nancy ESSEY)


LFSN 221330Z AUTO 26004KT 220V310 9999 SCT046 BKN056 OVC084 16/12 Q1013
Cloudbase :4600ft

Prévision WINDY

Prévision WINDGURU

Images satellite sat24.com

Images TEMSI Aéroweb (aviation.meteo.fr)

Dernière mise à jour: 13:38:01